createdAt,value
2022-10-23T00:00:48.843Z,3.03
2022-10-23T00:05:52.446Z,2.88
2022-10-23T00:10:55.991Z,3.58
2022-10-23T00:16:01.176Z,3.15
2022-10-23T00:21:05.991Z,2.95
2022-10-23T00:26:09.670Z,2.80
2022-10-23T00:31:15.226Z,3.15
2022-10-23T00:36:20.685Z,3.45
2022-10-23T00:41:26.299Z,2.97
2022-10-23T00:46:32.902Z,3.17
2022-10-23T00:51:41.229Z,3.63
2022-10-23T00:56:46.159Z,3.70
2022-10-23T01:01:52.671Z,3.40
2022-10-23T01:07:04.487Z,4.38
2022-10-23T01:12:16.072Z,3.72
2022-10-23T01:17:30.057Z,3.17
2022-10-23T01:22:59.391Z,3.38
2022-10-23T01:28:10.105Z,3.25
2022-10-23T01:33:18.650Z,3.58
2022-10-23T01:38:29.663Z,3.47
2022-10-23T01:43:41.790Z,3.75
2022-10-23T01:48:49.242Z,3.70
2022-10-23T01:53:56.658Z,3.55
2022-10-23T01:59:05.406Z,3.65
2022-10-23T02:04:13.010Z,3.30
2022-10-23T02:09:16.902Z,3.33
2022-10-23T02:14:29.792Z,3.80
2022-10-23T02:19:41.903Z,3.00
2022-10-23T02:24:50.497Z,3.22
2022-10-23T02:29:58.648Z,3.40
2022-10-23T02:35:02.686Z,3.22
2022-10-23T02:40:08.995Z,3.00
2022-10-23T02:45:20.336Z,3.17
2022-10-23T02:50:31.603Z,3.15
2022-10-23T02:55:46.437Z,3.38
2022-10-23T03:00:55.693Z,3.15
2022-10-23T03:05:59.603Z,2.85
2022-10-23T03:11:03.114Z,2.80
2022-10-23T03:16:08.585Z,3.10
2022-10-23T03:21:12.095Z,3.10
2022-10-23T03:26:15.669Z,3.05
2022-10-23T03:31:20.847Z,3.28
2022-10-23T03:36:24.383Z,3.30
2022-10-23T03:41:28.023Z,3.20
2022-10-23T03:46:33.172Z,3.00
2022-10-23T03:51:36.702Z,3.00
2022-10-23T03:56:40.255Z,2.63
2022-10-23T04:01:46.059Z,2.75
2022-10-23T04:11:52.941Z,2.47
2022-10-23T04:16:58.122Z,3.33
2022-10-23T04:22:01.640Z,2.80
2022-10-23T04:27:05.296Z,3.20
2022-10-23T04:32:10.490Z,2.83
2022-10-23T04:37:14.036Z,2.70
2022-10-23T04:42:17.605Z,2.88
2022-10-23T04:47:22.770Z,2.35
2022-10-23T04:52:26.350Z,2.47
2022-10-23T04:57:29.885Z,2.30
2022-10-23T05:02:35.099Z,2.40
2022-10-23T05:07:39.061Z,2.13
2022-10-23T05:12:42.577Z,2.90
2022-10-23T05:17:50.955Z,2.40
2022-10-23T05:22:57.626Z,2.28
2022-10-23T05:28:01.171Z,1.83
2022-10-23T05:33:06.770Z,2.17
2022-10-23T05:38:11.073Z,2.80
2022-10-23T05:43:14.604Z,2.47
2022-10-23T05:48:30.077Z,2.40
2022-10-23T05:53:40.102Z,2.53
2022-10-23T05:58:46.364Z,2.50
2022-10-23T06:03:51.734Z,1.98
2022-10-23T06:08:55.947Z,2.53
2022-10-23T06:13:59.465Z,1.80
2022-10-23T06:19:05.131Z,2.42
2022-10-23T06:24:09.098Z,2.20
2022-10-23T06:29:12.659Z,2.38
2022-10-23T06:34:17.822Z,1.88
2022-10-23T06:39:21.491Z,2.13
2022-10-23T06:44:25.993Z,2.15
2022-10-23T06:49:31.156Z,1.95
2022-10-23T06:54:34.824Z,1.97
2022-10-23T06:59:38.334Z,2.20
2022-10-23T07:04:43.508Z,2.10
2022-10-23T07:09:47.042Z,2.20
2022-10-23T07:14:51.167Z,2.20
2022-10-23T07:19:56.382Z,2.35
2022-10-23T07:24:59.914Z,2.07
2022-10-23T07:30:03.468Z,2.22
2022-10-23T07:35:09.765Z,2.03
2022-10-23T07:40:13.605Z,2.65
2022-10-23T07:45:17.292Z,2.20
2022-10-23T07:50:22.503Z,1.85
2022-10-23T07:55:26.094Z,2.07
2022-10-23T08:00:29.627Z,2.22
2022-10-23T08:05:34.797Z,1.67
2022-10-23T08:10:38.348Z,1.70
2022-10-23T08:15:42.829Z,2.13
2022-10-23T08:20:49.292Z,1.52
2022-10-23T08:25:58.627Z,1.20
2022-10-23T08:31:09.344Z,1.35
2022-10-23T08:36:20.720Z,1.73
2022-10-23T08:41:28.815Z,1.58
2022-10-23T08:46:38.443Z,1.40
2022-10-23T08:51:47.769Z,1.48
2022-10-23T08:56:55.078Z,1.40
2022-10-23T09:02:02.043Z,1.52
2022-10-23T09:07:15.649Z,1.33
2022-10-23T09:12:23.108Z,1.70
2022-10-23T09:17:28.218Z,1.52
2022-10-23T09:22:33.478Z,1.38
2022-10-23T09:27:37.043Z,1.70
2022-10-23T09:32:40.646Z,1.50
2022-10-23T09:37:48.551Z,1.55
2022-10-23T09:42:57.289Z,1.20
2022-10-23T09:48:21.084Z,1.40
2022-10-23T09:53:32.961Z,1.58
2022-10-23T09:58:39.382Z,1.10
2022-10-23T10:03:50.349Z,1.33
2022-10-23T10:08:57.129Z,1.60
2022-10-23T10:14:24.961Z,1.20
2022-10-23T10:19:44.489Z,1.67
2022-10-23T10:24:53.370Z,1.65
2022-10-23T10:30:06.052Z,1.52
2022-10-23T10:35:25.514Z,1.30
2022-10-23T10:40:35.008Z,1.33
2022-10-23T10:45:42.498Z,1.40
2022-10-23T10:50:51.640Z,1.63
2022-10-23T10:55:59.462Z,1.63
2022-10-23T11:01:12.256Z,1.45
2022-10-23T11:06:19.481Z,1.55
2022-10-23T11:11:29.541Z,1.13
2022-10-23T11:16:37.442Z,1.52
2022-10-23T11:21:44.894Z,1.75
2022-10-23T11:27:08.904Z,1.30
2022-10-23T11:32:38.765Z,1.35
2022-10-23T11:37:43.428Z,1.38
2022-10-23T11:42:50.462Z,1.45
2022-10-23T11:47:59.236Z,0.90
2022-10-23T11:53:21.228Z,1.23
2022-10-23T11:58:40.788Z,1.48
2022-10-23T12:03:52.239Z,1.30
2022-10-23T12:09:01.722Z,1.55
2022-10-23T12:14:25.358Z,1.33
2022-10-23T12:19:30.594Z,1.73
2022-10-23T12:24:49.987Z,1.27
2022-10-23T12:30:11.982Z,0.90
2022-10-23T12:35:50.124Z,1.25
2022-10-23T12:40:56.062Z,0.93
2022-10-23T12:46:05.861Z,1.00
2022-10-23T12:51:23.076Z,1.15
2022-10-23T12:56:29.496Z,1.20
2022-10-23T13:01:39.417Z,0.90
2022-10-23T13:06:45.617Z,0.95
2022-10-23T13:11:50.023Z,0.98
2022-10-23T13:17:02.629Z,1.23
2022-10-23T13:22:19.359Z,1.10
2022-10-23T13:27:34.976Z,0.93
2022-10-23T13:32:40.177Z,1.00
2022-10-23T13:42:50.246Z,1.00
2022-10-23T13:47:55.438Z,0.85
2022-10-23T13:52:58.950Z,1.30
2022-10-23T13:58:02.467Z,1.10
2022-10-23T14:03:07.713Z,1.05
2022-10-23T14:08:11.534Z,1.15
2022-10-23T14:13:15.259Z,0.95
2022-10-23T14:18:20.456Z,1.30
2022-10-23T14:23:23.971Z,0.80
2022-10-23T14:28:27.486Z,1.08
2022-10-23T14:33:32.764Z,1.10
2022-10-23T14:38:36.343Z,1.00
2022-10-23T14:43:40.063Z,1.20
2022-10-23T14:48:47.176Z,0.90
2022-10-23T14:53:58.894Z,1.10
2022-10-23T14:59:03.007Z,0.90
2022-10-23T15:04:08.391Z,0.82
2022-10-23T15:09:11.939Z,0.73
2022-10-23T15:14:15.490Z,0.63
2022-10-23T15:19:20.660Z,0.93
2022-10-23T15:24:24.237Z,0.90
2022-10-23T15:29:27.752Z,0.70
2022-10-23T15:34:33.201Z,0.70
2022-10-23T15:39:36.925Z,0.70
2022-10-23T15:44:40.957Z,0.65
2022-10-23T15:49:46.101Z,0.80
2022-10-23T15:54:49.636Z,0.77
2022-10-23T15:59:53.168Z,0.82
2022-10-23T16:04:58.327Z,0.80
2022-10-23T16:10:01.852Z,1.00
2022-10-23T16:15:05.976Z,0.90
2022-10-23T16:20:12.057Z,0.82
2022-10-23T16:25:15.699Z,0.60
2022-10-23T16:30:19.333Z,0.90
2022-10-23T16:35:24.796Z,0.88
2022-10-23T16:40:28.370Z,0.80
2022-10-23T16:45:34.418Z,0.60
2022-10-23T16:50:42.654Z,0.80
2022-10-23T16:55:46.155Z,0.70
2022-10-23T17:00:57.903Z,0.60
2022-10-23T17:06:06.187Z,0.60
2022-10-23T17:11:14.230Z,0.43
2022-10-23T17:16:20.928Z,0.47
2022-10-23T17:21:26.109Z,0.57
2022-10-23T17:26:30.090Z,0.28
2022-10-23T17:31:35.186Z,0.47
2022-10-23T17:36:42.434Z,0.60
2022-10-23T17:41:46.197Z,0.40
2022-10-23T17:46:52.182Z,0.68
2022-10-23T17:51:58.173Z,0.40
2022-10-23T17:57:01.707Z,0.60
2022-10-23T18:02:05.299Z,0.60
2022-10-23T18:07:10.517Z,0.30
2022-10-23T18:12:14.054Z,0.57
2022-10-23T18:17:17.590Z,0.20
2022-10-23T18:22:22.820Z,0.30
2022-10-23T18:27:26.410Z,0.30
2022-10-23T18:32:29.953Z,0.20
2022-10-23T18:37:38.974Z,0.30
2022-10-23T18:42:45.340Z,0.38
2022-10-23T18:47:49.259Z,0.30
2022-10-23T18:52:54.610Z,0.38
2022-10-23T19:03:01.607Z,0.45
2022-10-23T19:08:07.122Z,0.30
2022-10-23T19:13:10.710Z,0.30
2022-10-23T19:18:14.352Z,0.30
2022-10-23T19:23:19.573Z,0.30
2022-10-23T19:28:23.174Z,0.22
2022-10-23T19:33:26.719Z,0.22
2022-10-23T19:38:31.933Z,0.40
2022-10-23T19:43:35.495Z,0.60
2022-10-23T19:48:39.099Z,0.45
2022-10-23T19:53:44.293Z,0.10
2022-10-23T19:58:48.100Z,0.10
2022-10-23T20:03:51.780Z,0.30
2022-10-23T20:08:57.559Z,0.55
2022-10-23T20:14:01.092Z,0.20
2022-10-23T20:19:05.953Z,0.15
2022-10-23T20:24:12.431Z,0.30
2022-10-23T20:29:16.165Z,0.13
2022-10-23T20:34:19.894Z,0.20
2022-10-23T20:39:25.663Z,0.32
2022-10-23T20:44:29.628Z,0.17
2022-10-23T20:49:33.212Z,0.20
2022-10-23T20:54:38.398Z,0.15
2022-10-23T21:04:44.837Z,0.20
2022-10-23T21:09:50.055Z,0.20
2022-10-23T21:19:57.426Z,0.20
2022-10-23T21:25:02.614Z,0.10
2022-10-23T21:35:10.902Z,0.20
2022-10-23T21:40:17.445Z,0.13
2022-10-23T21:45:21.001Z,0.17
2022-10-23T21:50:24.589Z,0.30
2022-10-23T21:55:31.510Z,0.50
2022-10-23T22:00:35.037Z,0.50
2022-10-23T22:05:38.565Z,0.93
2022-10-23T22:10:43.746Z,0.80
2022-10-23T22:20:50.713Z,0.98
2022-10-23T22:25:56.133Z,0.90
2022-10-23T22:31:00.315Z,1.10
2022-10-23T22:36:04.107Z,1.38
2022-10-23T22:41:09.716Z,1.55
2022-10-23T22:46:15.339Z,1.13
2022-10-23T22:51:21.096Z,1.40
2022-10-23T22:56:28.062Z,1.15
2022-10-23T23:01:34.733Z,1.15
2022-10-23T23:06:38.319Z,1.63
2022-10-23T23:11:51.302Z,1.55
2022-10-23T23:16:55.482Z,1.33
2022-10-23T23:21:59.828Z,1.40
2022-10-23T23:27:05.165Z,1.73
2022-10-23T23:37:11.503Z,1.83
2022-10-23T23:42:16.686Z,1.90
2022-10-23T23:47:20.281Z,1.40
2022-10-23T23:52:24.019Z,1.27
2022-10-23T23:57:29.396Z,1.25
